Lenhartsville, Pennsylvania
Current Conditions -  °F | °C
As of 5:54 PM on Thursday 20 Nov 2014 (Local Time) from KRDG Reporting Station
Clear Clear  
Wind Chill: 26°   Ceiling: Unl
Heat Index: 36°   Visibility: 10mi
Dew Point: 13°   Wind: 16mph
Humidity: 39%   Direction: 300°WNW
Pressure: 29.95"   Gusts: NA
Location:  40.57°N, 75.89°W
Report Text: KRDG 202254Z 30014KT 10SM CLR 02/M11 A2995 RMK AO2 SLP149 T00221106
Loading
Personal Weather Stations






























Interactive Weather Map New forecast layout! Learn more

10-Day Weather Forecast

Advertisements
Track Severe Weather on mobile